sensor_id;sensor_type;location;lat;lon;timestamp;pressure;altitude;pressure_sealevel;temperature;humidity
78741;BME280;68062;48.726;9.370;2024-03-02T00:01:18;97643.66;;;3.36;100.00
78741;BME280;68062;48.726;9.370;2024-03-02T00:03:47;97655.50;;;3.38;100.00
78741;BME280;68062;48.726;9.370;2024-03-02T00:06:15;97658.88;;;3.33;100.00
78741;BME280;68062;48.726;9.370;2024-03-02T00:08:46;97658.84;;;3.34;100.00
78741;BME280;68062;48.726;9.370;2024-03-02T00:11:15;97650.41;;;3.34;100.00
78741;BME280;68062;48.726;9.370;2024-03-02T00:13:45;97638.50;;;3.31;100.00
78741;BME280;68062;48.726;9.370;2024-03-02T00:16:13;97638.47;;;3.28;100.00
78741;BME280;68062;48.726;9.370;2024-03-02T00:18:43;97646.94;;;3.26;100.00
78741;BME280;68062;48.726;9.370;2024-03-02T00:21:11;97648.59;;;3.25;100.00
78741;BME280;68062;48.726;9.370;2024-03-02T00:23:41;97648.59;;;3.25;100.00
78741;BME280;68062;48.726;9.370;2024-03-02T00:26:11;97656.22;;;3.25;100.00
78741;BME280;68062;48.726;9.370;2024-03-02T00:28:40;97646.06;;;3.23;100.00
78741;BME280;68062;48.726;9.370;2024-03-02T00:31:11;97652.00;;;3.22;100.00
78741;BME280;68062;48.726;9.370;2024-03-02T00:33:41;97657.06;;;3.22;100.00
78741;BME280;68062;48.726;9.370;2024-03-02T00:36:11;97651.09;;;3.19;100.00
78741;BME280;68062;48.726;9.370;2024-03-02T00:38:47;97650.25;;;3.18;100.00
78741;BME280;68062;48.726;9.370;2024-03-02T00:41:17;97657.00;;;3.16;100.00
78741;BME280;68062;48.726;9.370;2024-03-02T00:43:57;97663.72;;;3.11;100.00
78741;BME280;68062;48.726;9.370;2024-03-02T00:46:28;97667.13;;;3.13;100.00
78741;BME280;68062;48.726;9.370;2024-03-02T00:48:59;97656.91;;;3.07;100.00
78741;BME280;68062;48.726;9.370;2024-03-02T00:51:29;97656.91;;;3.07;100.00
78741;BME280;68062;48.726;9.370;2024-03-02T00:53:59;97656.84;;;3.01;100.00
78741;BME280;68062;48.726;9.370;2024-03-02T00:56:27;97647.53;;;3.01;100.00
78741;BME280;68062;48.726;9.370;2024-03-02T00:58:57;97656.00;;;3.02;100.00
78741;BME280;68062;48.726;9.370;2024-03-02T01:01:24;97646.66;;;2.99;100.00
78741;BME280;68062;48.726;9.370;2024-03-02T01:03:53;97650.94;;;3.02;100.00
78741;BME280;68062;48.726;9.370;2024-03-02T01:06:21;97659.38;;;3.02;100.00
78741;BME280;68062;48.726;9.370;2024-03-02T01:08:50;97649.22;;;3.02;100.00
78741;BME280;68062;48.726;9.370;2024-03-02T01:11:19;97616.81;;;2.78;100.00
78741;BME280;68062;48.726;9.370;2024-03-02T01:13:50;97628.75;;;2.87;100.00
78741;BME280;68062;48.726;9.370;2024-03-02T01:16:20;97654.31;;;3.01;100.00
78741;BME280;68062;48.726;9.370;2024-03-02T01:18:48;97650.91;;;2.99;100.00
78741;BME280;68062;48.726;9.370;2024-03-02T01:21:16;97643.25;;;2.97;100.00
78741;BME280;68062;48.726;9.370;2024-03-02T01:23:44;97654.25;;;2.96;100.00
78741;BME280;68062;48.726;9.370;2024-03-02T01:26:13;97652.50;;;2.92;100.00
78741;BME280;68062;48.726;9.370;2024-03-02T01:28:41;97650.00;;;2.93;100.00
78741;BME280;68062;48.726;9.370;2024-03-02T01:31:08;97646.59;;;2.91;100.00
78741;BME280;68062;48.726;9.370;2024-03-02T01:33:38;97648.25;;;2.89;100.00
78741;BME280;68062;48.726;9.370;2024-03-02T01:36:06;97649.97;;;2.90;100.00
78741;BME280;68062;48.726;9.370;2024-03-02T01:38:35;97638.03;;;2.83;100.00
78741;BME280;68062;48.726;9.370;2024-03-02T01:41:03;97625.19;;;2.71;100.00
78741;BME280;68062;48.726;9.370;2024-03-02T01:43:30;97648.19;;;2.83;100.00
78741;BME280;68062;48.726;9.370;2024-03-02T01:45:58;97613.28;;;2.62;100.00
78741;BME280;68062;48.726;9.370;2024-03-02T01:48:26;97603.16;;;2.67;100.00
78741;BME280;68062;48.726;9.370;2024-03-02T01:50:56;97634.59;;;2.78;100.00
78741;BME280;68062;48.726;9.370;2024-03-02T01:53:24;97626.06;;;2.73;100.00
78741;BME280;68062;48.726;9.370;2024-03-02T01:55:51;97641.34;;;2.76;100.00
78741;BME280;68062;48.726;9.370;2024-03-02T01:58:19;97631.94;;;2.69;100.00
78741;BME280;68062;48.726;9.370;2024-03-02T02:00:47;97637.03;;;2.69;100.00
78741;BME280;68062;48.726;9.370;2024-03-02T02:03:17;97632.78;;;2.69;100.00
78741;BME280;68062;48.726;9.370;2024-03-02T02:05:45;97621.78;;;2.69;100.00
78741;BME280;68062;48.726;9.370;2024-03-02T02:08:16;97634.50;;;2.69;100.00
78741;BME280;68062;48.726;9.370;2024-03-02T02:10:43;97635.28;;;2.64;100.00
78741;BME280;68062;48.726;9.370;2024-03-02T02:13:11;97630.19;;;2.61;100.00
78741;BME280;68062;48.726;9.370;2024-03-02T02:15:39;97628.50;;;2.63;100.00
78741;BME280;68062;48.726;9.370;2024-03-02T02:18:07;97629.41;;;2.69;100.00
78741;BME280;68062;48.726;9.370;2024-03-02T02:20:35;97632.06;;;2.79;100.00
78741;BME280;68062;48.726;9.370;2024-03-02T02:23:04;97621.78;;;2.70;100.00
78741;BME280;68062;48.726;9.370;2024-03-02T02:25:34;97625.19;;;2.72;100.00
78741;BME280;68062;48.726;9.370;2024-03-02T02:28:03;97631.88;;;2.61;100.00
78741;BME280;68062;48.726;9.370;2024-03-02T02:30:32;97622.63;;;2.68;100.00
78741;BME280;68062;48.726;9.370;2024-03-02T02:33:00;97620.81;;;2.57;100.00
78741;BME280;68062;48.726;9.370;2024-03-02T02:35:28;97619.13;;;2.56;100.00
78741;BME280;68062;48.726;9.370;2024-03-02T02:37:57;97620.59;;;2.39;100.00
78741;BME280;68062;48.726;9.370;2024-03-02T02:40:27;97619.56;;;2.24;100.00
78741;BME280;68062;48.726;9.370;2024-03-02T02:42:56;97621.19;;;2.19;100.00
78741;BME280;68062;48.726;9.370;2024-03-02T02:45:24;97622.88;;;2.18;100.00
78741;BME280;68062;48.726;9.370;2024-03-02T02:47:51;97627.06;;;2.15;100.00
78741;BME280;68062;48.726;9.370;2024-03-02T02:50:20;97614.28;;;2.07;100.00
78741;BME280;68062;48.726;9.370;2024-03-02T02:52:47;97618.47;;;2.06;100.00
78741;BME280;68062;48.726;9.370;2024-03-02T02:55:17;97616.69;;;1.99;100.00
78741;BME280;68062;48.726;9.370;2024-03-02T02:57:46;97600.47;;;1.86;100.00
78741;BME280;68062;48.726;9.370;2024-03-02T03:00:15;97589.19;;;1.67;100.00
78741;BME280;68062;48.726;9.370;2024-03-02T03:02:48;97609.56;;;1.72;100.00
78741;BME280;68062;48.726;9.370;2024-03-02T03:05:18;97615.41;;;1.69;100.00
78741;BME280;68062;48.726;9.370;2024-03-02T03:07:46;97609.50;;;1.69;100.00
78741;BME280;68062;48.726;9.370;2024-03-02T03:10:16;97602.75;;;1.68;100.00
78741;BME280;68062;48.726;9.370;2024-03-02T03:12:46;97609.47;;;1.67;100.00
78741;BME280;68062;48.726;9.370;2024-03-02T03:15:14;97612.09;;;1.73;100.00
78741;BME280;68062;48.726;9.370;2024-03-02T03:17:43;97610.34;;;1.68;100.00
78741;BME280;68062;48.726;9.370;2024-03-02T03:20:13;97605.97;;;1.57;100.00
78741;BME280;68062;48.726;9.370;2024-03-02T03:22:42;97605.09;;;1.57;100.00
78741;BME280;68062;48.726;9.370;2024-03-02T03:25:10;97596.59;;;1.53;100.00
78741;BME280;68062;48.726;9.370;2024-03-02T03:27:38;97619.56;;;1.63;100.00
78741;BME280;68062;48.726;9.370;2024-03-02T03:30:08;97617.88;;;1.63;100.00
78741;BME280;68062;48.726;9.370;2024-03-02T03:32:36;97612.78;;;1.63;100.00
78741;BME280;68062;48.726;9.370;2024-03-02T03:35:05;97604.94;;;1.47;100.00
78741;BME280;68062;48.726;9.370;2024-03-02T03:37:33;97615.28;;;1.58;100.00
78741;BME280;68062;48.726;9.370;2024-03-02T03:40:02;97623.56;;;1.50;100.00
78741;BME280;68062;48.726;9.370;2024-03-02T03:42:34;97616.66;;;1.39;100.00
78741;BME280;68062;48.726;9.370;2024-03-02T03:45:02;97620.03;;;1.40;100.00
78741;BME280;68062;48.726;9.370;2024-03-02T03:47:32;97618.34;;;1.39;100.00
78741;BME280;68062;48.726;9.370;2024-03-02T03:50:00;97623.25;;;1.29;100.00
78741;BME280;68062;48.726;9.370;2024-03-02T03:52:31;97624.13;;;1.33;100.00
78741;BME280;68062;48.726;9.370;2024-03-02T03:54:59;97628.25;;;1.25;100.00
78741;BME280;68062;48.726;9.370;2024-03-02T03:57:27;97622.94;;;1.09;100.00
78741;BME280;68062;48.726;9.370;2024-03-02T03:59:55;97613.47;;;0.99;100.00
78741;BME280;68062;48.726;9.370;2024-03-02T04:02:22;97616.81;;;0.98;100.00
78741;BME280;68062;48.726;9.370;2024-03-02T04:04:52;97618.47;;;0.96;100.00
78741;BME280;68062;48.726;9.370;2024-03-02T04:07:20;97615.94;;;0.96;100.00
78741;BME280;68062;48.726;9.370;2024-03-02T04:09:48;97608.28;;;0.93;100.00
78741;BME280;68062;48.726;9.370;2024-03-02T04:12:16;97564.81;;;0.69;100.00
78741;BME280;68062;48.726;9.370;2024-03-02T04:14:44;97614.41;;;1.04;100.00
78741;BME280;68062;48.726;9.370;2024-03-02T04:17:12;97625.41;;;1.06;100.00
78741;BME280;68062;48.726;9.370;2024-03-02T04:19:40;97620.28;;;1.03;100.00
78741;BME280;68062;48.726;9.370;2024-03-02T04:22:09;97623.53;;;0.96;100.00
78741;BME280;68062;48.726;9.370;2024-03-02T04:24:47;97626.78;;;0.88;100.00
78741;BME280;68062;48.726;9.370;2024-03-02T04:27:15;97626.69;;;0.84;100.00
78741;BME280;68062;48.726;9.370;2024-03-02T04:29:43;97625.91;;;0.88;100.00
78741;BME280;68062;48.726;9.370;2024-03-02T04:32:10;97626.56;;;0.78;100.00
78741;BME280;68062;48.726;9.370;2024-03-02T04:34:38;97629.06;;;0.76;100.00
78741;BME280;68062;48.726;9.370;2024-03-02T04:37:08;97623.19;;;0.79;100.00
78741;BME280;68062;48.726;9.370;2024-03-02T04:39:36;97628.25;;;0.77;100.00
78741;BME280;68062;48.726;9.370;2024-03-02T04:42:04;97616.94;;;0.60;100.00
78741;BME280;68062;48.726;9.370;2024-03-02T04:44:32;97621.25;;;0.65;100.00
78741;BME280;68062;48.726;9.370;2024-03-02T04:47:00;97636.56;;;0.70;100.00
78741;BME280;68062;48.726;9.370;2024-03-02T04:49:28;97628.84;;;0.64;100.00
78741;BME280;68062;48.726;9.370;2024-03-02T04:51:56;97635.44;;;0.57;100.00
78741;BME280;68062;48.726;9.370;2024-03-02T04:54:25;97632.00;;;0.53;100.00
78741;BME280;68062;48.726;9.370;2024-03-02T04:56:53;97631.25;;;0.57;100.00
78741;BME280;68062;48.726;9.370;2024-03-02T04:59:20;97641.50;;;0.64;100.00
78741;BME280;68062;48.726;9.370;2024-03-02T05:01:48;97643.91;;;0.57;100.00
78741;BME280;68062;48.726;9.370;2024-03-02T05:04:16;97636.25;;;0.56;100.00
78741;BME280;68062;48.726;9.370;2024-03-02T05:06:44;97642.16;;;0.55;100.00
78741;BME280;68062;48.726;9.370;2024-03-02T05:09:18;97643.78;;;0.53;100.00
78741;BME280;68062;48.726;9.370;2024-03-02T05:11:48;97630.25;;;0.51;100.00
78741;BME280;68062;48.726;9.370;2024-03-02T05:14:38;97637.19;;;0.60;100.00
78741;BME280;68062;48.726;9.370;2024-03-02T05:17:06;97628.78;;;0.62;100.00
78741;BME280;68062;48.726;9.370;2024-03-02T05:19:34;97626.94;;;0.53;100.00
78741;BME280;68062;48.726;9.370;2024-03-02T05:22:02;97634.66;;;0.60;100.00
78741;BME280;68062;48.726;9.370;2024-03-02T05:24:31;97632.09;;;0.58;100.00
78741;BME280;68062;48.726;9.370;2024-03-02T05:27:00;97628.66;;;0.54;100.00
78741;BME280;68062;48.726;9.370;2024-03-02T05:29:28;97624.31;;;0.49;100.00
78741;BME280;68062;48.726;9.370;2024-03-02T05:31:56;97631.97;;;0.52;100.00
78741;BME280;68062;48.726;9.370;2024-03-02T05:34:24;97635.63;;;0.66;100.00
78741;BME280;68062;48.726;9.370;2024-03-02T05:36:51;97636.63;;;0.75;100.00
78741;BME280;68062;48.726;9.370;2024-03-02T05:39:20;97635.56;;;0.63;100.00
78741;BME280;68062;48.726;9.370;2024-03-02T05:41:48;97642.09;;;0.52;100.00
78741;BME280;68062;48.726;9.370;2024-03-02T05:44:17;97637.00;;;0.50;100.00
78741;BME280;68062;48.726;9.370;2024-03-02T05:46:46;97644.44;;;0.42;100.00
78741;BME280;68062;48.726;9.370;2024-03-02T05:49:15;97639.25;;;0.36;100.00
78741;BME280;68062;48.726;9.370;2024-03-02T05:51:42;97648.47;;;0.33;100.00
78741;BME280;68062;48.726;9.370;2024-03-02T05:54:11;97653.84;;;0.48;100.00
78741;BME280;68062;48.726;9.370;2024-03-02T05:56:38;97623.03;;;0.26;100.00
78741;BME280;68062;48.726;9.370;2024-03-02T05:59:06;97645.44;;;0.51;100.00
78741;BME280;68062;48.726;9.370;2024-03-02T06:01:43;97654.78;;;0.53;100.00
78741;BME280;68062;48.726;9.370;2024-03-02T06:04:13;97656.31;;;0.45;100.00
78741;BME280;68062;48.726;9.370;2024-03-02T06:06:41;97648.59;;;0.39;100.00
78741;BME280;68062;48.726;9.370;2024-03-02T06:09:10;97658.78;;;0.43;100.00
78741;BME280;68062;48.726;9.370;2024-03-02T06:11:40;97656.09;;;0.36;100.00
78741;BME280;68062;48.726;9.370;2024-03-02T06:14:08;97654.53;;;0.41;100.00
78741;BME280;68062;48.726;9.370;2024-03-02T06:16:36;97651.88;;;0.36;100.00
78741;BME280;68062;48.726;9.370;2024-03-02T06:19:05;97656.94;;;0.35;100.00
78741;BME280;68062;48.726;9.370;2024-03-02T06:21:33;97661.16;;;0.36;100.00
78741;BME280;68062;48.726;9.370;2024-03-02T06:24:01;97662.00;;;0.35;100.00
78741;BME280;68062;48.726;9.370;2024-03-02T06:26:29;97666.38;;;0.43;100.00
78741;BME280;68062;48.726;9.370;2024-03-02T06:28:58;97660.50;;;0.44;100.00
78741;BME280;68062;48.726;9.370;2024-03-02T06:31:26;97680.16;;;0.56;100.00
78741;BME280;68062;48.726;9.370;2024-03-02T06:33:54;97680.16;;;0.56;100.00
78741;BME280;68062;48.726;9.370;2024-03-02T06:36:23;97680.84;;;0.51;100.00
78741;BME280;68062;48.726;9.370;2024-03-02T06:38:51;97645.88;;;0.29;100.00
78741;BME280;68062;48.726;9.370;2024-03-02T06:41:19;97676.63;;;0.50;100.00
78741;BME280;68062;48.726;9.370;2024-03-02T06:43:47;97678.47;;;0.57;100.00
78741;BME280;68062;48.726;9.370;2024-03-02T06:46:14;97674.19;;;0.54;100.00
78741;BME280;68062;48.726;9.370;2024-03-02T06:48:42;97679.53;;;0.68;100.00
78741;BME280;68062;48.726;9.370;2024-03-02T06:51:10;97676.22;;;0.71;100.00
78741;BME280;68062;48.726;9.370;2024-03-02T06:53:39;97669.63;;;0.79;100.00
78741;BME280;68062;48.726;9.370;2024-03-02T06:56:07;97674.06;;;0.90;100.00
78741;BME280;68062;48.726;9.370;2024-03-02T06:58:36;97676.75;;;0.99;100.00
78741;BME280;68062;48.726;9.370;2024-03-02T07:01:04;97675.16;;;1.04;100.00
78741;BME280;68062;48.726;9.370;2024-03-02T07:03:32;97684.72;;;1.19;100.00
78741;BME280;68062;48.726;9.370;2024-03-02T07:06:00;97679.94;;;1.36;100.00
78741;BME280;68062;48.726;9.370;2024-03-02T07:08:28;97683.53;;;1.49;100.00
78741;BME280;68062;48.726;9.370;2024-03-02T07:10:57;97687.13;;;1.62;100.00
78741;BME280;68062;48.726;9.370;2024-03-02T07:13:26;97693.13;;;1.67;100.00
78741;BME280;68062;48.726;9.370;2024-03-02T07:15:54;97671.88;;;1.59;100.00
78741;BME280;68062;48.726;9.370;2024-03-02T07:18:54;97699.31;;;1.85;100.00
78741;BME280;68062;48.726;9.370;2024-03-02T07:21:23;97695.41;;;2.05;100.00
78741;BME280;68062;48.726;9.370;2024-03-02T07:23:51;97699.88;;;2.22;100.00
78741;BME280;68062;48.726;9.370;2024-03-02T07:26:20;97690.03;;;2.44;100.00
78741;BME280;68062;48.726;9.370;2024-03-02T07:28:51;97693.66;;;2.63;100.00
78741;BME280;68062;48.726;9.370;2024-03-02T07:31:19;97689.59;;;2.76;100.00
78741;BME280;68062;48.726;9.370;2024-03-02T07:33:47;97679.59;;;2.91;100.00
78741;BME280;68062;48.726;9.370;2024-03-02T07:36:15;97691.66;;;3.09;100.00
78741;BME280;68062;48.726;9.370;2024-03-02T07:38:43;97685.09;;;3.29;100.00
78741;BME280;68062;48.726;9.370;2024-03-02T07:41:12;97695.47;;;3.55;100.00
78741;BME280;68062;48.726;9.370;2024-03-02T07:43:41;97694.06;;;3.87;100.00
78741;BME280;68062;48.726;9.370;2024-03-02T07:46:09;97695.97;;;4.17;100.00
78741;BME280;68062;48.726;9.370;2024-03-02T07:48:37;97701.25;;;4.53;100.00
78741;BME280;68062;48.726;9.370;2024-03-02T07:51:05;97698.88;;;4.82;100.00
78741;BME280;68062;48.726;9.370;2024-03-02T07:53:33;97681.97;;;5.12;100.00
78741;BME280;68062;48.726;9.370;2024-03-02T07:56:04;97682.88;;;5.42;100.00
78741;BME280;68062;48.726;9.370;2024-03-02T07:58:34;97685.44;;;5.70;100.00
78741;BME280;68062;48.726;9.370;2024-03-02T08:01:05;97693.09;;;5.92;100.00
78741;BME280;68062;48.726;9.370;2024-03-02T08:03:33;97680.34;;;6.14;100.00
78741;BME280;68062;48.726;9.370;2024-03-02T08:06:02;97681.16;;;6.31;100.00
78741;BME280;68062;48.726;9.370;2024-03-02T08:08:30;97685.41;;;6.39;100.00
78741;BME280;68062;48.726;9.370;2024-03-02T08:10:58;97672.66;;;6.39;100.00
78741;BME280;68062;48.726;9.370;2024-03-02T08:13:27;97671.81;;;6.38;100.00
78741;BME280;68062;48.726;9.370;2024-03-02T08:15:55;97675.22;;;6.29;100.00
78741;BME280;68062;48.726;9.370;2024-03-02T08:18:25;97676.09;;;6.21;100.00
78741;BME280;68062;48.726;9.370;2024-03-02T08:20:53;97676.97;;;6.10;100.00
78741;BME280;68062;48.726;9.370;2024-03-02T08:23:20;97676.97;;;6.01;100.00
78741;BME280;68062;48.726;9.370;2024-03-02T08:25:48;97674.41;;;6.04;100.00
78741;BME280;68062;48.726;9.370;2024-03-02T08:28:16;97673.56;;;6.07;100.00
78741;BME280;68062;48.726;9.370;2024-03-02T08:30:45;97670.16;;;6.09;100.00
78741;BME280;68062;48.726;9.370;2024-03-02T08:33:13;97664.19;;;6.12;100.00
78741;BME280;68062;48.726;9.370;2024-03-02T08:35:42;97669.31;;;6.10;100.00
78741;BME280;68062;48.726;9.370;2024-03-02T08:38:10;97665.06;;;6.06;100.00
78741;BME280;68062;48.726;9.370;2024-03-02T08:40:38;97656.53;;;6.09;100.00
78741;BME280;68062;48.726;9.370;2024-03-02T08:43:07;97646.34;;;6.10;100.00
78741;BME280;68062;48.726;9.370;2024-03-02T08:45:34;97648.00;;;6.25;100.00
78741;BME280;68062;48.726;9.370;2024-03-02T08:48:03;97644.53;;;6.46;100.00
78741;BME280;68062;48.726;9.370;2024-03-02T08:50:31;97641.84;;;6.74;100.00
78741;BME280;68062;48.726;9.370;2024-03-02T08:53:00;97639.19;;;6.98;100.00
78741;BME280;68062;48.726;9.370;2024-03-02T08:55:28;97645.00;;;7.23;100.00
78741;BME280;68062;48.726;9.370;2024-03-02T08:57:56;97641.41;;;7.52;100.00
78741;BME280;68062;48.726;9.370;2024-03-02T09:00:24;97627.75;;;7.55;100.00
78741;BME280;68062;48.726;9.370;2024-03-02T09:02:52;97643.81;;;7.72;98.76
78741;BME280;68062;48.726;9.370;2024-03-02T09:05:20;97637.72;;;7.86;97.19
78741;BME280;68062;48.726;9.370;2024-03-02T09:07:48;97639.84;;;8.29;94.25
78741;BME280;68062;48.726;9.370;2024-03-02T09:10:17;97616.63;;;8.45;94.69
78741;BME280;68062;48.726;9.370;2024-03-02T09:12:45;97627.72;;;9.14;91.42
78741;BME280;68062;48.726;9.370;2024-03-02T09:15:13;97628.84;;;9.54;89.39
78741;BME280;68062;48.726;9.370;2024-03-02T09:17:41;97628.84;;;10.06;86.40
78741;BME280;68062;48.726;9.370;2024-03-02T09:20:10;97625.31;;;10.58;82.18
78741;BME280;68062;48.726;9.370;2024-03-02T09:22:38;97626.09;;;11.03;78.92
78741;BME280;68062;48.726;9.370;2024-03-02T09:25:07;97625.06;;;11.50;76.44
78741;BME280;68062;48.726;9.370;2024-03-02T09:27:37;97628.88;;;12.04;72.85
78741;BME280;68062;48.726;9.370;2024-03-02T09:30:09;97629.72;;;12.38;70.21
78741;BME280;68062;48.726;9.370;2024-03-02T09:32:37;97625.38;;;12.70;66.79
78741;BME280;68062;48.726;9.370;2024-03-02T09:35:06;97622.22;;;13.20;65.83
78741;BME280;68062;48.726;9.370;2024-03-02T09:37:34;97623.69;;;13.82;62.65
78741;BME280;68062;48.726;9.370;2024-03-02T09:40:02;97614.69;;;14.20;61.12
78741;BME280;68062;48.726;9.370;2024-03-02T09:42:31;97616.97;;;14.53;59.02
78741;BME280;68062;48.726;9.370;2024-03-02T09:45:01;97620.59;;;14.73;56.94
78741;BME280;68062;48.726;9.370;2024-03-02T09:47:29;97606.91;;;14.93;56.44
78741;BME280;68062;48.726;9.370;2024-03-02T09:49:57;97601.81;;;15.36;55.57
78741;BME280;68062;48.726;9.370;2024-03-02T09:52:25;97599.69;;;15.45;54.69
78741;BME280;68062;48.726;9.370;2024-03-02T09:54:53;97602.94;;;15.94;52.45
78741;BME280;68062;48.726;9.370;2024-03-02T09:57:21;97597.88;;;16.11;51.52
78741;BME280;68062;48.726;9.370;2024-03-02T09:59:49;97598.91;;;16.47;50.96
78741;BME280;68062;48.726;9.370;2024-03-02T10:02:19;97592.59;;;16.13;51.29
78741;BME280;68062;48.726;9.370;2024-03-02T10:04:48;97588.41;;;16.50;51.11
78741;BME280;68062;48.726;9.370;2024-03-02T10:07:17;97588.00;;;17.17;49.97
78741;BME280;68062;48.726;9.370;2024-03-02T10:09:47;97589.41;;;17.59;47.97
78741;BME280;68062;48.726;9.370;2024-03-02T10:12:17;97575.00;;;18.06;46.97
78741;BME280;68062;48.726;9.370;2024-03-02T10:14:45;97579.97;;;18.45;45.29
78741;BME280;68062;48.726;9.370;2024-03-02T10:17:18;97564.94;;;18.82;44.30
78741;BME280;68062;48.726;9.370;2024-03-02T10:19:46;97568.53;;;18.63;44.13
78741;BME280;68062;48.726;9.370;2024-03-02T10:22:14;97565.34;;;18.90;42.90
78741;BME280;68062;48.726;9.370;2024-03-02T10:24:43;97542.75;;;19.23;42.77
78741;BME280;68062;48.726;9.370;2024-03-02T10:27:15;97561.00;;;19.84;41.54
78741;BME280;68062;48.726;9.370;2024-03-02T10:29:45;97567.50;;;20.22;40.67
78741;BME280;68062;48.726;9.370;2024-03-02T10:32:14;97559.38;;;20.41;39.70
78741;BME280;68062;48.726;9.370;2024-03-02T10:34:45;97568.66;;;20.02;40.70
78741;BME280;68062;48.726;9.370;2024-03-02T10:37:15;97554.81;;;20.30;40.26
78741;BME280;68062;48.726;9.370;2024-03-02T10:39:45;97542.56;;;20.45;39.11
78741;BME280;68062;48.726;9.370;2024-03-02T10:42:15;97547.34;;;20.53;39.24
78741;BME280;68062;48.726;9.370;2024-03-02T10:44:44;97549.34;;;20.91;38.94
78741;BME280;68062;48.726;9.370;2024-03-02T10:47:14;97539.28;;;21.53;38.17
78741;BME280;68062;48.726;9.370;2024-03-02T10:49:46;97537.22;;;21.17;38.17
78741;BME280;68062;48.726;9.370;2024-03-02T10:52:14;97531.31;;;21.54;38.24
78741;BME280;68062;48.726;9.370;2024-03-02T10:54:42;97528.56;;;21.83;38.33
78741;BME280;68062;48.726;9.370;2024-03-02T10:57:11;97524.28;;;21.42;38.77
78741;BME280;68062;48.726;9.370;2024-03-02T10:59:50;97521.50;;;21.05;38.97
78741;BME280;68062;48.726;9.370;2024-03-02T11:02:21;97515.28;;;21.20;39.87
78741;BME280;68062;48.726;9.370;2024-03-02T11:04:54;97511.09;;;21.30;39.54
78741;BME280;68062;48.726;9.370;2024-03-02T11:07:22;97504.81;;;20.93;38.90
78741;BME280;68062;48.726;9.370;2024-03-02T11:09:54;97492.94;;;21.01;39.79
78741;BME280;68062;48.726;9.370;2024-03-02T11:12:28;97495.84;;;20.97;39.32
78741;BME280;68062;48.726;9.370;2024-03-02T11:14:58;97466.00;;;20.59;39.36
78741;BME280;68062;48.726;9.370;2024-03-02T11:17:26;97494.03;;;19.39;42.02
78741;BME280;68062;48.726;9.370;2024-03-02T11:19:56;97488.94;;;19.52;41.28
78741;BME280;68062;48.726;9.370;2024-03-02T11:22:26;97485.22;;;19.11;42.58
78741;BME280;68062;48.726;9.370;2024-03-02T11:24:54;97483.44;;;19.12;41.69
78741;BME280;68062;48.726;9.370;2024-03-02T11:30:50;97463.31;;;18.03;43.78
78741;BME280;68062;48.726;9.370;2024-03-02T11:33:25;97464.53;;;17.10;44.94
78741;BME280;68062;48.726;9.370;2024-03-02T11:35:56;97459.19;;;16.76;46.69
78741;BME280;68062;48.726;9.370;2024-03-02T11:38:30;97457.53;;;16.56;46.26
78741;BME280;68062;48.726;9.370;2024-03-02T11:40:59;97444.94;;;16.85;45.68
78741;BME280;68062;48.726;9.370;2024-03-02T11:43:28;97452.59;;;17.41;44.37
78741;BME280;68062;48.726;9.370;2024-03-02T11:45:56;97441.75;;;18.17;43.34
78741;BME280;68062;48.726;9.370;2024-03-02T11:48:25;97439.00;;;18.83;41.46
78741;BME280;68062;48.726;9.370;2024-03-02T11:50:53;97428.88;;;19.39;39.98
78741;BME280;68062;48.726;9.370;2024-03-02T11:53:27;97420.44;;;20.08;38.83
78741;BME280;68062;48.726;9.370;2024-03-02T11:55:58;97418.41;;;20.26;38.42
78741;BME280;68062;48.726;9.370;2024-03-02T11:58:28;97415.97;;;20.80;38.17
78741;BME280;68062;48.726;9.370;2024-03-02T12:00:56;97399.03;;;21.78;36.78
78741;BME280;68062;48.726;9.370;2024-03-02T12:03:25;97397.75;;;21.83;36.85
78741;BME280;68062;48.726;9.370;2024-03-02T12:05:54;97390.31;;;21.51;36.21
78741;BME280;68062;48.726;9.370;2024-03-02T12:08:22;97388.44;;;21.53;36.71
78741;BME280;68062;48.726;9.370;2024-03-02T12:11:00;97379.28;;;22.11;35.89
78741;BME280;68062;48.726;9.370;2024-03-02T12:13:30;97381.53;;;22.53;35.35
78741;BME280;68062;48.726;9.370;2024-03-02T12:15:59;97380.00;;;22.86;35.24
78741;BME280;68062;48.726;9.370;2024-03-02T12:18:27;97370.25;;;23.35;34.38
78741;BME280;68062;48.726;9.370;2024-03-02T12:20:55;97369.09;;;23.03;33.93
78741;BME280;68062;48.726;9.370;2024-03-02T12:23:25;97384.03;;;22.54;33.81
78741;BME280;68062;48.726;9.370;2024-03-02T12:25:53;97381.69;;;22.62;34.38
78741;BME280;68062;48.726;9.370;2024-03-02T12:28:22;97376.63;;;22.72;34.52
78741;BME280;68062;48.726;9.370;2024-03-02T12:30:50;97363.94;;;23.02;34.14
78741;BME280;68062;48.726;9.370;2024-03-02T12:33:19;97358.53;;;22.81;33.56
78741;BME280;68062;48.726;9.370;2024-03-02T12:35:49;97360.41;;;22.67;33.60
78741;BME280;68062;48.726;9.370;2024-03-02T12:38:17;97348.28;;;23.25;33.11
78741;BME280;68062;48.726;9.370;2024-03-02T12:40:47;97330.66;;;23.61;33.01
78741;BME280;68062;48.726;9.370;2024-03-02T12:43:15;97342.38;;;24.23;32.11
78741;BME280;68062;48.726;9.370;2024-03-02T12:45:45;97341.31;;;24.59;31.38
78741;BME280;68062;48.726;9.370;2024-03-02T12:48:13;97312.00;;;24.75;30.51
78741;BME280;68062;48.726;9.370;2024-03-02T12:50:41;97334.25;;;24.92;30.38
78741;BME280;68062;48.726;9.370;2024-03-02T12:53:14;97327.97;;;25.04;29.88
78741;BME280;68062;48.726;9.370;2024-03-02T12:55:43;97335.69;;;25.27;29.62
78741;BME280;68062;48.726;9.370;2024-03-02T12:58:16;97325.97;;;25.80;29.06
78741;BME280;68062;48.726;9.370;2024-03-02T13:00:46;97319.78;;;26.00;28.36
78741;BME280;68062;48.726;9.370;2024-03-02T13:03:14;97323.38;;;25.59;28.69
78741;BME280;68062;48.726;9.370;2024-03-02T13:05:48;97308.75;;;26.36;28.22
78741;BME280;68062;48.726;9.370;2024-03-02T13:08:16;97318.00;;;26.11;27.27
78741;BME280;68062;48.726;9.370;2024-03-02T13:10:44;97318.78;;;25.92;27.39
78741;BME280;68062;48.726;9.370;2024-03-02T13:13:13;97313.34;;;25.83;27.84